createdAt,value
2023-09-06T00:02:26.660Z,99.90
2023-09-06T00:04:56.364Z,99.90
2023-09-06T00:07:24.599Z,99.90
2023-09-06T00:09:52.222Z,99.90
2023-09-06T00:12:21.614Z,99.90
2023-09-06T00:14:49.445Z,99.90
2023-09-06T00:17:17.152Z,99.90
2023-09-06T00:19:44.748Z,99.90
2023-09-06T00:22:12.347Z,99.90
2023-09-06T00:24:39.975Z,99.90
2023-09-06T00:27:07.721Z,99.90
2023-09-06T00:29:35.398Z,99.90
2023-09-06T00:32:03.430Z,99.90
2023-09-06T00:34:32.720Z,99.90
2023-09-06T00:37:02.851Z,99.90
2023-09-06T00:39:32.161Z,99.90
2023-09-06T00:42:01.533Z,99.90
2023-09-06T00:44:29.687Z,99.90
2023-09-06T00:46:57.417Z,99.90
2023-09-06T00:49:25.261Z,99.90
2023-09-06T00:51:54.410Z,99.90
2023-09-06T00:54:22.041Z,99.90
2023-09-06T00:56:51.695Z,99.90
2023-09-06T00:59:23.221Z,99.90
2023-09-06T01:01:51.120Z,99.90
2023-09-06T01:04:18.932Z,99.90
2023-09-06T01:06:48.327Z,99.90
2023-09-06T01:09:16.067Z,99.90
2023-09-06T01:11:43.753Z,99.90
2023-09-06T01:14:11.477Z,99.90
2023-09-06T01:16:50.160Z,99.90
2023-09-06T01:19:20.964Z,99.90
2023-09-06T01:22:08.136Z,99.90
2023-09-06T01:24:36.915Z,99.90
2023-09-06T01:27:06.895Z,99.90
2023-09-06T01:29:36.354Z,99.90
2023-09-06T01:32:06.627Z,99.90
2023-09-06T01:34:34.322Z,99.90
2023-09-06T01:37:02.002Z,99.90
2023-09-06T01:39:29.697Z,99.90
2023-09-06T01:41:57.358Z,99.90
2023-09-06T01:44:25.008Z,99.90
2023-09-06T01:46:53.111Z,99.90
2023-09-06T01:49:20.721Z,99.90
2023-09-06T01:51:49.322Z,99.90
2023-09-06T01:54:17.250Z,99.90
2023-09-06T01:56:44.915Z,99.90
2023-09-06T01:59:12.577Z,99.90
2023-09-06T02:01:40.186Z,99.90
2023-09-06T02:04:07.952Z,99.90
2023-09-06T02:06:35.589Z,99.90
2023-09-06T02:09:04.537Z,99.90
2023-09-06T02:11:35.269Z,99.90
2023-09-06T02:14:03.144Z,99.90
2023-09-06T02:16:31.657Z,99.90
2023-09-06T02:18:59.228Z,99.90
2023-09-06T02:21:27.123Z,99.90
2023-09-06T02:23:54.690Z,99.90
2023-09-06T02:26:22.274Z,99.90
2023-09-06T02:28:51.831Z,99.90
2023-09-06T02:31:19.602Z,99.90
2023-09-06T02:33:47.440Z,99.90
2023-09-06T02:36:16.722Z,99.90
2023-09-06T02:38:48.420Z,99.90
2023-09-06T02:41:16.154Z,99.90
2023-09-06T02:43:43.730Z,99.90
2023-09-06T02:46:13.646Z,99.90
2023-09-06T02:48:42.136Z,99.90
2023-09-06T02:51:11.627Z,99.90
2023-09-06T02:53:45.435Z,99.90
2023-09-06T02:56:16.393Z,99.90
2023-09-06T02:58:44.322Z,99.90
2023-09-06T03:01:21.240Z,99.90
2023-09-06T03:03:52.661Z,99.90
2023-09-06T03:06:33.740Z,99.90
2023-09-06T03:09:08.085Z,99.90
2023-09-06T03:11:37.340Z,99.90
2023-09-06T03:14:05.605Z,99.90
2023-09-06T03:16:39.998Z,99.90
2023-09-06T03:19:12.294Z,99.90
2023-09-06T03:21:41.104Z,99.90
2023-09-06T03:24:13.344Z,99.90
2023-09-06T03:26:45.132Z,99.90
2023-09-06T03:29:16.419Z,99.90
2023-09-06T03:31:44.387Z,99.90
2023-09-06T03:34:14.504Z,99.90
2023-09-06T03:36:47.410Z,99.90
2023-09-06T03:39:15.609Z,99.90
2023-09-06T03:41:43.659Z,99.90
2023-09-06T03:44:11.322Z,99.90
2023-09-06T03:46:39.124Z,99.90
2023-09-06T03:49:06.942Z,99.90
2023-09-06T03:51:34.724Z,99.90
2023-09-06T03:54:06.938Z,99.90
2023-09-06T03:56:35.869Z,99.90
2023-09-06T03:59:05.665Z,99.90
2023-09-06T04:01:34.261Z,99.90
2023-09-06T04:04:02.787Z,99.90
2023-09-06T04:06:30.480Z,99.90
2023-09-06T04:08:58.289Z,99.90
2023-09-06T04:11:25.962Z,99.90
2023-09-06T04:13:56.966Z,99.90
2023-09-06T04:16:27.303Z,99.90
2023-09-06T04:18:56.069Z,99.90
2023-09-06T04:21:23.953Z,99.90
2023-09-06T04:23:51.496Z,99.90
2023-09-06T04:26:21.396Z,99.90
2023-09-06T04:28:50.451Z,99.90
2023-09-06T04:31:20.414Z,99.90
2023-09-06T04:33:49.537Z,99.90
2023-09-06T04:36:22.335Z,99.90
2023-09-06T04:38:56.847Z,99.90
2023-09-06T04:41:25.112Z,99.90
2023-09-06T04:43:56.927Z,99.90
2023-09-06T04:46:24.885Z,99.90
2023-09-06T04:48:56.449Z,99.90
2023-09-06T04:51:25.286Z,99.90
2023-09-06T04:53:55.005Z,99.90
2023-09-06T04:56:29.297Z,99.90
2023-09-06T04:58:57.117Z,99.90
2023-09-06T05:01:25.277Z,99.90
2023-09-06T05:03:53.189Z,99.90
2023-09-06T05:06:21.808Z,99.90
2023-09-06T05:08:49.425Z,99.90
2023-09-06T05:11:20.529Z,99.90
2023-09-06T05:13:51.163Z,99.90
2023-09-06T05:16:20.090Z,99.90
2023-09-06T05:18:50.382Z,99.90
2023-09-06T05:21:21.583Z,99.90
2023-09-06T05:23:49.876Z,99.90
2023-09-06T05:26:17.888Z,99.90
2023-09-06T05:28:49.898Z,99.90
2023-09-06T05:31:19.813Z,99.90
2023-09-06T05:33:48.873Z,99.90
2023-09-06T05:36:18.830Z,99.90
2023-09-06T05:38:46.409Z,99.90
2023-09-06T05:41:15.175Z,99.90
2023-09-06T05:43:46.289Z,99.90
2023-09-06T05:46:30.358Z,99.90
2023-09-06T05:49:02.959Z,99.90
2023-09-06T05:51:35.111Z,99.90
2023-09-06T05:54:04.478Z,99.90
2023-09-06T05:56:33.107Z,99.90
2023-09-06T05:59:01.415Z,99.90
2023-09-06T06:01:29.340Z,99.90
2023-09-06T06:03:57.228Z,99.90
2023-09-06T06:06:24.817Z,99.90
2023-09-06T06:08:54.983Z,99.90
2023-09-06T06:11:25.377Z,99.90
2023-09-06T06:14:08.189Z,99.90
2023-09-06T06:16:39.077Z,99.90
2023-09-06T06:19:07.315Z,99.90
2023-09-06T06:21:35.245Z,99.90
2023-09-06T06:24:03.099Z,99.90
2023-09-06T06:26:30.711Z,99.90
2023-09-06T06:28:58.542Z,99.90
2023-09-06T06:31:26.407Z,99.90
2023-09-06T06:33:54.735Z,99.90
2023-09-06T06:36:22.655Z,99.90
2023-09-06T06:38:50.211Z,99.90
2023-09-06T06:41:24.487Z,99.90
2023-09-06T06:43:52.437Z,99.90
2023-09-06T06:46:38.631Z,99.90
2023-09-06T06:49:08.557Z,99.90
2023-09-06T06:51:40.060Z,99.90
2023-09-06T06:54:11.314Z,99.90
2023-09-06T06:56:39.288Z,99.90
2023-09-06T06:59:08.601Z,99.90
2023-09-06T07:01:37.217Z,99.90
2023-09-06T07:04:08.399Z,99.90
2023-09-06T07:06:37.084Z,99.90
2023-09-06T07:09:05.428Z,99.90
2023-09-06T07:11:34.169Z,99.90
2023-09-06T07:14:01.984Z,99.90
2023-09-06T07:16:31.964Z,99.90
2023-09-06T07:19:00.010Z,99.90
2023-09-06T07:21:29.436Z,99.90
2023-09-06T07:23:57.151Z,99.90
2023-09-06T07:26:24.843Z,99.90
2023-09-06T07:28:52.467Z,99.90
2023-09-06T07:31:20.123Z,99.90
2023-09-06T07:33:48.007Z,99.90
2023-09-06T07:36:15.674Z,99.90
2023-09-06T07:38:44.086Z,99.90
2023-09-06T07:41:13.219Z,99.90
2023-09-06T07:43:40.823Z,99.90
2023-09-06T07:46:10.330Z,99.90
2023-09-06T07:48:40.313Z,99.90
2023-09-06T07:51:09.190Z,99.90
2023-09-06T07:53:36.844Z,99.90
2023-09-06T07:56:07.164Z,99.90
2023-09-06T07:58:35.422Z,99.90
2023-09-06T08:01:16.980Z,99.90
2023-09-06T08:03:46.284Z,99.90
2023-09-06T08:06:18.092Z,99.90
2023-09-06T08:08:50.650Z,99.90
2023-09-06T08:11:39.834Z,99.90
2023-09-06T08:14:35.155Z,99.90
2023-09-06T08:17:03.538Z,99.90
2023-09-06T08:19:31.175Z,99.90
2023-09-06T08:21:58.770Z,99.90
2023-09-06T08:24:26.664Z,99.90
2023-09-06T08:26:54.384Z,99.90
2023-09-06T08:29:22.130Z,99.90
2023-09-06T08:31:50.190Z,99.90
2023-09-06T08:34:17.749Z,99.90
2023-09-06T08:36:45.378Z,99.90
2023-09-06T08:39:13.042Z,99.90
2023-09-06T08:41:42.823Z,99.90
2023-09-06T08:44:12.485Z,99.90
2023-09-06T08:46:43.499Z,99.90
2023-09-06T08:49:12.868Z,99.90
2023-09-06T08:51:43.090Z,99.90
2023-09-06T08:54:11.539Z,99.90
2023-09-06T08:56:39.659Z,99.90
2023-09-06T08:59:09.469Z,99.90
2023-09-06T09:01:39.398Z,99.90
2023-09-06T09:04:07.644Z,99.90
2023-09-06T09:06:35.496Z,99.90
2023-09-06T09:09:19.436Z,99.90
2023-09-06T09:11:51.644Z,99.90
2023-09-06T09:14:23.943Z,99.90
2023-09-06T09:16:59.408Z,99.90
2023-09-06T09:19:28.133Z,99.90
2023-09-06T09:21:58.548Z,99.90
2023-09-06T09:24:35.068Z,99.90
2023-09-06T09:27:07.025Z,99.90
2023-09-06T09:29:36.640Z,99.90
2023-09-06T09:32:04.935Z,99.90
2023-09-06T09:34:33.240Z,99.90
2023-09-06T09:37:03.080Z,99.90
2023-09-06T09:39:30.766Z,99.90
2023-09-06T09:42:00.266Z,99.90
2023-09-06T09:44:28.122Z,99.90
2023-09-06T09:47:03.424Z,99.90
2023-09-06T09:49:37.742Z,99.90
2023-09-06T09:52:10.508Z,99.90
2023-09-06T09:54:43.664Z,99.90
2023-09-06T09:57:12.499Z,99.90
2023-09-06T09:59:42.183Z,99.90
2023-09-06T10:02:22.361Z,99.90
2023-09-06T10:04:58.603Z,99.90
2023-09-06T10:07:39.073Z,99.90
2023-09-06T10:10:14.459Z,99.90
2023-09-06T10:12:46.622Z,99.90
2023-09-06T10:15:15.172Z,99.90
2023-09-06T10:17:43.720Z,99.90
2023-09-06T10:20:15.488Z,99.90
2023-09-06T10:22:45.110Z,99.90
2023-09-06T10:25:15.610Z,99.90
2023-09-06T10:27:49.803Z,99.90
2023-09-06T10:30:21.797Z,99.90
2023-09-06T10:32:49.651Z,99.90
2023-09-06T10:35:22.414Z,99.90
2023-09-06T10:38:06.791Z,99.90
2023-09-06T10:40:57.660Z,99.90
2023-09-06T10:43:43.377Z,99.90
2023-09-06T10:46:11.343Z,99.90
2023-09-06T10:48:39.317Z,99.90
2023-09-06T10:51:07.971Z,99.90
2023-09-06T10:53:36.136Z,99.90
2023-09-06T10:56:04.929Z,99.90
2023-09-06T10:58:35.094Z,99.90
2023-09-06T11:01:14.894Z,99.90
2023-09-06T11:03:54.366Z,99.90
2023-09-06T11:06:24.893Z,99.80
2023-09-06T11:08:54.256Z,99.50
2023-09-06T11:11:22.224Z,99.60
2023-09-06T11:13:49.810Z,99.40
2023-09-06T11:16:17.464Z,99.00
2023-09-06T11:18:47.231Z,99.00
2023-09-06T11:21:19.668Z,98.10
2023-09-06T11:23:49.538Z,97.50
2023-09-06T11:26:18.452Z,96.90
2023-09-06T11:28:48.890Z,96.40
2023-09-06T11:31:31.079Z,95.90
2023-09-06T11:34:06.928Z,95.50
2023-09-06T11:36:37.960Z,95.10
2023-09-06T11:39:17.658Z,94.90
2023-09-06T11:41:46.346Z,94.60
2023-09-06T11:44:16.369Z,94.30
2023-09-06T11:46:45.196Z,93.30
2023-09-06T11:49:15.958Z,93.60
2023-09-06T11:51:45.161Z,93.30
2023-09-06T11:56:47.629Z,93.00
2023-09-06T11:59:18.844Z,93.10
2023-09-06T12:01:47.185Z,92.90
2023-09-06T12:04:17.966Z,92.50
2023-09-06T12:06:46.150Z,92.40
2023-09-06T12:09:14.055Z,92.50
2023-09-06T12:11:41.821Z,92.40
2023-09-06T12:14:13.646Z,92.20
2023-09-06T12:16:42.956Z,92.50
2023-09-06T12:19:15.122Z,92.80
2023-09-06T12:21:43.182Z,93.00
2023-09-06T12:24:11.153Z,93.00
2023-09-06T12:26:38.931Z,93.30
2023-09-06T12:29:06.612Z,93.50
2023-09-06T12:31:34.366Z,93.60
2023-09-06T12:34:04.813Z,93.80
2023-09-06T12:36:32.734Z,94.10
2023-09-06T12:39:00.316Z,94.40
2023-09-06T12:41:28.019Z,94.60
2023-09-06T12:46:23.697Z,94.50
2023-09-06T12:48:51.481Z,94.90
2023-09-06T12:51:19.197Z,95.50
2023-09-06T12:53:46.894Z,95.70
2023-09-06T12:56:16.902Z,95.80
2023-09-06T12:58:45.929Z,95.80
2023-09-06T13:01:15.068Z,95.70
2023-09-06T13:03:45.212Z,95.90
2023-09-06T13:06:13.066Z,95.90
2023-09-06T13:08:42.951Z,96.20
2023-09-06T13:11:14.166Z,96.10
2023-09-06T13:13:43.273Z,96.20
2023-09-06T13:16:11.378Z,96.00
2023-09-06T13:18:42.087Z,96.40
2023-09-06T13:21:10.143Z,96.90
2023-09-06T13:23:37.833Z,96.70
2023-09-06T13:26:05.764Z,96.80
2023-09-06T13:28:35.102Z,97.00
2023-09-06T13:31:04.457Z,96.90
2023-09-06T13:33:35.627Z,97.20
2023-09-06T13:36:05.717Z,97.30
2023-09-06T13:38:33.299Z,97.60
2023-09-06T13:41:00.920Z,97.70
2023-09-06T13:43:28.829Z,97.90
2023-09-06T13:45:56.694Z,97.90
2023-09-06T13:48:24.410Z,97.80
2023-09-06T13:50:52.487Z,97.70
2023-09-06T13:53:20.363Z,97.80
2023-09-06T13:55:47.990Z,98.00
2023-09-06T13:58:15.753Z,97.90
2023-09-06T14:00:43.890Z,98.50
2023-09-06T14:03:11.845Z,98.60
2023-09-06T14:05:39.835Z,98.30
2023-09-06T14:08:07.787Z,98.30
2023-09-06T14:10:35.528Z,98.50
2023-09-06T14:13:03.403Z,98.50
2023-09-06T14:15:31.157Z,98.80
2023-09-06T14:17:59.408Z,99.10
2023-09-06T14:20:27.214Z,98.80
2023-09-06T14:22:55.022Z,98.70
2023-09-06T14:25:22.713Z,98.70
2023-09-06T14:27:51.588Z,98.30
2023-09-06T14:30:19.293Z,98.60
2023-09-06T14:32:46.920Z,98.90
2023-09-06T14:35:14.610Z,98.60
2023-09-06T14:37:42.711Z,99.00
2023-09-06T14:40:11.109Z,98.40
2023-09-06T14:42:38.913Z,98.70
2023-09-06T14:45:07.352Z,99.00
2023-09-06T14:47:35.150Z,99.10
2023-09-06T14:50:02.922Z,99.30
2023-09-06T14:52:31.752Z,99.40
2023-09-06T14:54:59.417Z,99.50
2023-09-06T14:57:27.186Z,99.60
2023-09-06T14:59:55.427Z,99.60
2023-09-06T15:02:23.251Z,99.40
2023-09-06T15:04:51.118Z,99.60
2023-09-06T15:07:18.744Z,99.50
2023-09-06T15:09:46.733Z,99.50
2023-09-06T15:12:14.620Z,99.30
2023-09-06T15:14:42.410Z,99.30
2023-09-06T15:17:10.138Z,99.60
2023-09-06T15:19:37.857Z,99.70
2023-09-06T15:22:06.631Z,99.80
2023-09-06T15:24:34.243Z,99.70
2023-09-06T15:27:01.930Z,99.60
2023-09-06T15:29:29.503Z,99.90
2023-09-06T15:32:00.326Z,99.90
2023-09-06T15:34:28.676Z,99.90
2023-09-06T15:36:56.736Z,99.90
2023-09-06T15:39:24.411Z,99.90
2023-09-06T15:41:52.026Z,99.90
2023-09-06T15:44:19.631Z,99.90
2023-09-06T15:46:48.172Z,99.90
2023-09-06T15:49:15.923Z,99.90
2023-09-06T15:51:43.523Z,99.90
2023-09-06T15:54:11.232Z,99.90
2023-09-06T15:56:39.097Z,99.90
2023-09-06T15:59:07.028Z,99.90
2023-09-06T16:01:34.805Z,99.90
2023-09-06T16:04:02.475Z,99.90
2023-09-06T16:06:33.581Z,99.90
2023-09-06T16:09:02.437Z,99.90
2023-09-06T16:11:30.821Z,99.90
2023-09-06T16:13:58.635Z,99.90
2023-09-06T16:16:26.219Z,99.90
2023-09-06T16:18:54.375Z,99.90
2023-09-06T16:21:22.815Z,99.90
2023-09-06T16:23:50.631Z,99.90
2023-09-06T16:26:18.916Z,99.90
2023-09-06T16:28:46.629Z,99.90
2023-09-06T16:31:14.601Z,99.90
2023-09-06T16:33:42.490Z,99.90
2023-09-06T16:36:10.271Z,99.90
2023-09-06T16:38:38.050Z,99.90
2023-09-06T16:41:06.000Z,99.90
2023-09-06T16:43:33.629Z,99.90
2023-09-06T16:46:01.597Z,99.90
2023-09-06T16:48:36.786Z,99.90
2023-09-06T16:51:07.579Z,99.90
2023-09-06T16:53:35.253Z,99.90
2023-09-06T16:56:02.870Z,99.90
2023-09-06T16:58:30.790Z,99.90
2023-09-06T17:00:58.635Z,99.90
2023-09-06T17:03:26.753Z,99.90
2023-09-06T17:05:54.462Z,99.90
2023-09-06T17:08:22.213Z,99.90
2023-09-06T17:10:49.783Z,99.90
2023-09-06T17:13:17.450Z,99.90
2023-09-06T17:15:45.241Z,99.90
2023-09-06T17:18:14.644Z,99.90
2023-09-06T17:20:42.299Z,99.90
2023-09-06T17:23:09.936Z,99.90
2023-09-06T17:25:40.115Z,99.90
2023-09-06T17:28:08.944Z,99.90
2023-09-06T17:30:36.534Z,99.90
2023-09-06T17:33:15.845Z,99.90
2023-09-06T17:35:45.955Z,99.90
2023-09-06T17:38:16.054Z,99.90
2023-09-06T17:40:46.216Z,99.90
2023-09-06T17:43:17.637Z,99.90
2023-09-06T17:45:49.420Z,99.90
2023-09-06T17:48:19.472Z,99.90
2023-09-06T17:50:54.041Z,99.90
2023-09-06T17:53:26.610Z,99.90
2023-09-06T17:56:09.025Z,99.90
2023-09-06T17:58:38.947Z,99.90
2023-09-06T18:01:09.055Z,99.90
2023-09-06T18:03:45.144Z,99.90
2023-09-06T18:06:15.953Z,99.90
2023-09-06T18:08:45.440Z,99.90
2023-09-06T18:11:13.150Z,99.90
2023-09-06T18:13:42.223Z,99.90
2023-09-06T18:16:15.367Z,99.90
2023-09-06T18:18:44.277Z,99.90
2023-09-06T18:21:15.094Z,99.90
2023-09-06T18:23:49.277Z,99.90
2023-09-06T18:26:17.278Z,99.90
2023-09-06T18:28:45.031Z,99.90
2023-09-06T18:31:15.873Z,99.90
2023-09-06T18:33:43.742Z,99.90
2023-09-06T18:36:11.742Z,99.90
2023-09-06T18:38:39.439Z,99.90
2023-09-06T18:41:10.536Z,99.90
2023-09-06T18:43:45.096Z,99.90
2023-09-06T18:46:12.942Z,99.90
2023-09-06T18:48:40.665Z,99.90
2023-09-06T18:51:09.030Z,99.90
2023-09-06T18:53:38.244Z,99.90
2023-09-06T18:56:08.090Z,99.90
2023-09-06T18:58:37.824Z,99.90
2023-09-06T19:01:12.383Z,99.90
2023-09-06T19:03:40.290Z,99.90
2023-09-06T19:06:08.188Z,99.90
2023-09-06T19:08:36.180Z,99.90
2023-09-06T19:11:05.574Z,99.90
2023-09-06T19:13:33.606Z,99.90
2023-09-06T19:16:01.331Z,99.90
2023-09-06T19:18:29.321Z,99.90
2023-09-06T19:20:57.288Z,99.90
2023-09-06T19:23:25.728Z,99.90
2023-09-06T19:25:56.063Z,99.90
2023-09-06T19:28:25.497Z,99.90
2023-09-06T19:30:58.221Z,99.90
2023-09-06T19:33:27.606Z,99.90
2023-09-06T19:35:56.337Z,99.90
2023-09-06T19:38:24.252Z,99.90
2023-09-06T19:40:54.653Z,99.90
2023-09-06T19:43:23.465Z,99.90
2023-09-06T19:45:55.427Z,99.90
2023-09-06T19:48:23.675Z,99.90
2023-09-06T19:50:51.737Z,99.90
2023-09-06T19:53:19.483Z,99.90
2023-09-06T19:55:49.341Z,99.90
2023-09-06T19:58:17.415Z,99.90
2023-09-06T20:00:44.991Z,99.90
2023-09-06T20:03:12.901Z,99.90
2023-09-06T20:05:40.754Z,99.90
2023-09-06T20:08:09.353Z,99.90
2023-09-06T20:10:50.185Z,99.90
2023-09-06T20:13:18.199Z,99.90
2023-09-06T20:15:45.879Z,99.90
2023-09-06T20:18:14.129Z,99.90
2023-09-06T20:20:41.941Z,99.90
2023-09-06T20:23:10.786Z,99.90
2023-09-06T20:25:38.573Z,99.90
2023-09-06T20:28:06.500Z,99.90
2023-09-06T20:30:37.882Z,99.90
2023-09-06T20:35:33.491Z,99.90
2023-09-06T20:38:01.120Z,99.90
2023-09-06T20:40:28.674Z,99.90
2023-09-06T20:42:56.282Z,99.90
2023-09-06T20:45:23.935Z,99.90
2023-09-06T20:47:51.598Z,99.90
2023-09-06T20:52:47.663Z,99.90
2023-09-06T20:55:15.339Z,99.90
2023-09-06T20:57:42.927Z,99.90
2023-09-06T21:00:10.689Z,99.90
2023-09-06T21:02:38.378Z,99.90
2023-09-06T21:05:06.376Z,99.90
2023-09-06T21:07:34.176Z,99.90
2023-09-06T21:10:01.862Z,99.90
2023-09-06T21:12:33.284Z,99.90
2023-09-06T21:15:00.978Z,99.90
2023-09-06T21:17:28.773Z,99.90
2023-09-06T21:19:56.451Z,99.90
2023-09-06T21:22:24.041Z,99.90
2023-09-06T21:24:51.708Z,99.90
2023-09-06T21:27:19.439Z,99.90
2023-09-06T21:29:47.098Z,99.90
2023-09-06T21:32:14.667Z,99.90
2023-09-06T21:34:42.431Z,99.90
2023-09-06T21:37:10.250Z,99.90
2023-09-06T21:39:37.872Z,99.90
2023-09-06T21:42:05.761Z,99.90
2023-09-06T21:44:33.443Z,99.90
2023-09-06T21:47:01.009Z,99.90
2023-09-06T21:49:28.594Z,99.90
2023-09-06T21:51:56.151Z,99.90
2023-09-06T21:54:23.717Z,99.90
2023-09-06T21:56:51.297Z,99.90
2023-09-06T21:59:19.856Z,99.90
2023-09-06T22:01:47.371Z,99.90
2023-09-06T22:04:33.663Z,99.90
2023-09-06T22:07:19.787Z,99.90
2023-09-06T22:10:07.366Z,99.90
2023-09-06T22:12:53.875Z,99.90
2023-09-06T22:15:21.589Z,99.90
2023-09-06T22:17:49.221Z,99.90
2023-09-06T22:20:20.340Z,99.90
2023-09-06T22:25:16.112Z,99.90
2023-09-06T22:27:44.091Z,99.90
2023-09-06T22:30:12.073Z,99.90
2023-09-06T22:32:40.571Z,99.90
2023-09-06T22:35:08.343Z,99.90
2023-09-06T22:37:38.862Z,99.90
2023-09-06T22:40:07.326Z,99.90
2023-09-06T22:42:34.962Z,99.90
2023-09-06T22:45:02.600Z,99.90
2023-09-06T22:47:30.730Z,99.90
2023-09-06T22:49:58.266Z,99.90
2023-09-06T22:52:26.024Z,99.90
2023-09-06T22:54:53.744Z,99.90
2023-09-06T22:57:21.492Z,99.90
2023-09-06T22:59:49.168Z,99.90
2023-09-06T23:02:16.879Z,99.90
2023-09-06T23:04:46.451Z,99.90
2023-09-06T23:07:14.624Z,99.90
2023-09-06T23:09:42.609Z,99.90
2023-09-06T23:12:10.227Z,99.90
2023-09-06T23:14:38.289Z,99.90
2023-09-06T23:17:09.089Z,99.90
2023-09-06T23:19:45.184Z,99.90
2023-09-06T23:22:20.686Z,99.90
2023-09-06T23:24:50.660Z,99.90
2023-09-06T23:27:24.452Z,99.90
2023-09-06T23:29:56.639Z,99.90
2023-09-06T23:32:26.410Z,99.90
2023-09-06T23:34:55.472Z,99.90
2023-09-06T23:37:23.494Z,99.90
2023-09-06T23:39:51.841Z,99.90
2023-09-06T23:42:20.890Z,99.90
2023-09-06T23:44:49.190Z,99.90
2023-09-06T23:47:17.476Z,99.90
2023-09-06T23:49:45.837Z,99.90
2023-09-06T23:52:14.430Z,99.90
2023-09-06T23:54:48.041Z,99.90
2023-09-06T23:57:18.713Z,99.90
2023-09-06T23:59:47.940Z,99.90
